sensor_id;sensor_type;location;lat;lon;timestamp;pressure;altitude;pressure_sealevel;temperature;humidity
26823;BME280;14852;51.910;8.878;2022-07-30T00:00:09;99833.81;;;21.11;56.06
26823;BME280;14852;51.910;8.878;2022-07-30T00:02:35;99832.13;;;21.10;56.09
26823;BME280;14852;51.910;8.878;2022-07-30T00:05:01;99840.19;;;21.09;55.96
26823;BME280;14852;51.910;8.878;2022-07-30T00:07:26;99841.03;;;21.09;56.19
26823;BME280;14852;51.910;8.878;2022-07-30T00:09:52;99836.72;;;21.08;56.26
26823;BME280;14852;51.910;8.878;2022-07-30T00:12:18;99831.44;;;21.08;56.28
26823;BME280;14852;51.910;8.878;2022-07-30T00:14:44;99842.72;;;21.01;56.18
26823;BME280;14852;51.910;8.878;2022-07-30T00:17:10;99829.25;;;20.94;56.33
26823;BME280;14852;51.910;8.878;2022-07-30T00:19:35;99828.03;;;20.88;56.44
26823;BME280;14852;51.910;8.878;2022-07-30T00:22:01;99826.06;;;20.90;56.94
26823;BME280;14852;51.910;8.878;2022-07-30T00:24:27;99828.84;;;20.89;56.96
26823;BME280;14852;51.910;8.878;2022-07-30T00:26:53;99817.63;;;20.87;56.61
26823;BME280;14852;51.910;8.878;2022-07-30T00:29:19;99815.97;;;20.86;56.87
26823;BME280;14852;51.910;8.878;2022-07-30T00:31:45;99813.31;;;20.86;57.00
26823;BME280;14852;51.910;8.878;2022-07-30T00:34:11;99815.97;;;20.86;57.24
26823;BME280;14852;51.910;8.878;2022-07-30T00:36:38;99810.53;;;20.87;56.80
26823;BME280;14852;51.910;8.878;2022-07-30T00:39:04;99814.97;;;20.87;56.81
26823;BME280;14852;51.910;8.878;2022-07-30T00:41:30;99814.53;;;20.91;57.03
26823;BME280;14852;51.910;8.878;2022-07-30T00:43:55;99815.81;;;20.87;57.31
26823;BME280;14852;51.910;8.878;2022-07-30T00:46:21;99825.41;;;20.79;57.36
26823;BME280;14852;51.910;8.878;2022-07-30T00:48:48;99814.59;;;20.72;57.20
26823;BME280;14852;51.910;8.878;2022-07-30T00:51:13;99802.28;;;20.63;57.67
26823;BME280;14852;51.910;8.878;2022-07-30T00:53:39;99807.81;;;20.60;57.63
26823;BME280;14852;51.910;8.878;2022-07-30T00:56:06;99802.69;;;20.58;57.29
26823;BME280;14852;51.910;8.878;2022-07-30T00:58:32;99800.03;;;20.58;57.88
26823;BME280;14852;51.910;8.878;2022-07-30T01:00:57;99798.25;;;20.59;57.68
26823;BME280;14852;51.910;8.878;2022-07-30T01:03:23;99805.47;;;20.57;58.01
26823;BME280;14852;51.910;8.878;2022-07-30T01:05:49;99805.75;;;20.54;58.07
26823;BME280;14852;51.910;8.878;2022-07-30T01:08:16;99801.75;;;20.50;57.75
26823;BME280;14852;51.910;8.878;2022-07-30T01:10:41;99796.03;;;20.45;58.29
26823;BME280;14852;51.910;8.878;2022-07-30T01:13:07;99796.34;;;20.42;57.97
26823;BME280;14852;51.910;8.878;2022-07-30T01:15:34;99796.75;;;20.37;58.39
26823;BME280;14852;51.910;8.878;2022-07-30T01:18:04;99792.00;;;20.31;58.83
26823;BME280;14852;51.910;8.878;2022-07-30T01:20:37;99787.72;;;20.20;58.50
26823;BME280;14852;51.910;8.878;2022-07-30T01:23:30;99789.81;;;20.17;58.26
26823;BME280;14852;51.910;8.878;2022-07-30T01:28:50;99793.69;;;20.13;58.39
26823;BME280;14852;51.910;8.878;2022-07-30T01:31:18;99793.16;;;20.09;58.65
26823;BME280;14852;51.910;8.878;2022-07-30T01:33:47;99788.84;;;20.08;58.78
26823;BME280;14852;51.910;8.878;2022-07-30T01:36:16;99791.63;;;20.07;58.97
26823;BME280;14852;51.910;8.878;2022-07-30T01:38:44;99785.53;;;20.06;59.19
26823;BME280;14852;51.910;8.878;2022-07-30T01:41:13;99784.84;;;20.04;59.22
26823;BME280;14852;51.910;8.878;2022-07-30T01:43:40;99791.22;;;20.02;58.93
26823;BME280;14852;51.910;8.878;2022-07-30T01:46:09;99791.47;;;19.99;58.97
26823;BME280;14852;51.910;8.878;2022-07-30T01:48:38;99795.25;;;20.06;59.42
26823;BME280;14852;51.910;8.878;2022-07-30T01:51:06;99791.78;;;20.05;59.28
26823;BME280;14852;51.910;8.878;2022-07-30T01:53:37;99793.44;;;20.06;59.04
26823;BME280;14852;51.910;8.878;2022-07-30T01:56:04;99802.59;;;20.12;59.40
26823;BME280;14852;51.910;8.878;2022-07-30T01:58:36;99796.59;;;20.19;59.44
26823;BME280;14852;51.910;8.878;2022-07-30T02:01:12;99794.53;;;20.23;59.05
26823;BME280;14852;51.910;8.878;2022-07-30T02:03:38;99794.13;;;20.28;58.99
26823;BME280;14852;51.910;8.878;2022-07-30T02:06:12;99792.56;;;20.35;59.17
26823;BME280;14852;51.910;8.878;2022-07-30T02:08:50;99795.53;;;20.41;58.55
26823;BME280;14852;51.910;8.878;2022-07-30T02:11:19;99802.75;;;20.39;59.07
26823;BME280;14852;51.910;8.878;2022-07-30T02:14:14;99792.88;;;20.41;58.98
26823;BME280;14852;51.910;8.878;2022-07-30T02:16:44;99789.09;;;20.34;59.06
26823;BME280;14852;51.910;8.878;2022-07-30T02:19:16;99789.81;;;20.27;59.31
26823;BME280;14852;51.910;8.878;2022-07-30T02:21:47;99781.47;;;20.21;59.20
26823;BME280;14852;51.910;8.878;2022-07-30T02:24:20;99787.88;;;20.19;59.32
26823;BME280;14852;51.910;8.878;2022-07-30T02:26:52;99784.81;;;20.14;59.35
26823;BME280;14852;51.910;8.878;2022-07-30T02:29:19;99790.50;;;20.09;59.85
26823;BME280;14852;51.910;8.878;2022-07-30T02:31:47;99794.56;;;20.04;59.39
26823;BME280;14852;51.910;8.878;2022-07-30T02:34:14;99790.50;;;20.00;59.89
26823;BME280;14852;51.910;8.878;2022-07-30T02:36:42;99792.19;;;20.01;59.70
26823;BME280;14852;51.910;8.878;2022-07-30T02:39:09;99792.19;;;20.01;60.16
26823;BME280;14852;51.910;8.878;2022-07-30T02:41:38;99794.00;;;20.00;59.72
26823;BME280;14852;51.910;8.878;2022-07-30T02:44:05;99792.31;;;19.99;60.22
26823;BME280;14852;51.910;8.878;2022-07-30T02:46:31;99800.38;;;19.98;59.86
26823;BME280;14852;51.910;8.878;2022-07-30T02:49:25;99802.03;;;19.99;59.80
26823;BME280;14852;51.910;8.878;2022-07-30T02:51:53;99799.41;;;19.99;59.89
26823;BME280;14852;51.910;8.878;2022-07-30T02:54:20;99796.75;;;19.99;59.87
26823;BME280;14852;51.910;8.878;2022-07-30T02:56:49;99800.50;;;19.96;60.26
26823;BME280;14852;51.910;8.878;2022-07-30T02:59:17;99798.03;;;19.95;60.22
26823;BME280;14852;51.910;8.878;2022-07-30T03:01:46;99805.94;;;19.95;60.27
26823;BME280;14852;51.910;8.878;2022-07-30T03:04:13;99798.56;;;19.98;60.00
26823;BME280;14852;51.910;8.878;2022-07-30T03:06:41;99799.53;;;19.97;59.96
26823;BME280;14852;51.910;8.878;2022-07-30T03:09:08;99804.97;;;19.96;60.15
26823;BME280;14852;51.910;8.878;2022-07-30T03:11:35;99813.84;;;19.95;60.64
26823;BME280;14852;51.910;8.878;2022-07-30T03:14:02;99807.19;;;20.00;60.20
26823;BME280;14852;51.910;8.878;2022-07-30T03:16:29;99811.06;;;20.06;60.28
26823;BME280;14852;51.910;8.878;2022-07-30T03:18:57;99814.09;;;20.11;60.00
26823;BME280;14852;51.910;8.878;2022-07-30T03:21:28;99821.47;;;20.17;59.80
26823;BME280;14852;51.910;8.878;2022-07-30T03:23:59;99814.78;;;20.22;58.98
26823;BME280;14852;51.910;8.878;2022-07-30T03:26:29;99814.81;;;20.13;59.81
26823;BME280;14852;51.910;8.878;2022-07-30T03:28:56;99818.69;;;20.09;59.96
26823;BME280;14852;51.910;8.878;2022-07-30T03:31:23;99825.22;;;20.05;60.16
26823;BME280;14852;51.910;8.878;2022-07-30T03:33:50;99827.44;;;20.00;59.93
26823;BME280;14852;51.910;8.878;2022-07-30T03:36:17;99827.88;;;19.95;60.28
26823;BME280;14852;51.910;8.878;2022-07-30T03:38:44;99830.06;;;19.90;60.65
26823;BME280;14852;51.910;8.878;2022-07-30T03:41:13;99828.53;;;19.87;60.67
26823;BME280;14852;51.910;8.878;2022-07-30T03:43:42;99832.44;;;19.83;60.51
26823;BME280;14852;51.910;8.878;2022-07-30T03:46:09;99831.88;;;19.80;60.62
26823;BME280;14852;51.910;8.878;2022-07-30T03:48:39;99834.06;;;19.75;60.79
26823;BME280;14852;51.910;8.878;2022-07-30T03:51:07;99835.03;;;19.74;60.80
26823;BME280;14852;51.910;8.878;2022-07-30T03:53:38;99832.84;;;19.69;61.11
26823;BME280;14852;51.910;8.878;2022-07-30T03:56:27;99836.56;;;19.67;61.01
26823;BME280;14852;51.910;8.878;2022-07-30T03:59:27;99848.91;;;19.66;60.66
26823;BME280;14852;51.910;8.878;2022-07-30T04:01:53;99850.16;;;19.62;61.34
26823;BME280;14852;51.910;8.878;2022-07-30T04:04:42;99847.38;;;19.64;61.45
26823;BME280;14852;51.910;8.878;2022-07-30T04:07:09;99848.53;;;19.71;61.16
26823;BME280;14852;51.910;8.878;2022-07-30T04:09:35;99853.09;;;19.78;61.32
26823;BME280;14852;51.910;8.878;2022-07-30T04:12:17;99853.66;;;19.82;60.99
26823;BME280;14852;51.910;8.878;2022-07-30T04:14:44;99857.41;;;19.89;60.83
26823;BME280;14852;51.910;8.878;2022-07-30T04:17:35;99854.25;;;19.95;61.12
26823;BME280;14852;51.910;8.878;2022-07-30T04:20:16;99859.66;;;19.94;60.84
26823;BME280;14852;51.910;8.878;2022-07-30T04:22:44;99862.69;;;19.89;60.86
26823;BME280;14852;51.910;8.878;2022-07-30T04:25:11;99863.53;;;19.89;61.23
26823;BME280;14852;51.910;8.878;2022-07-30T04:27:38;99864.50;;;19.88;61.11
26823;BME280;14852;51.910;8.878;2022-07-30T04:30:05;99861.84;;;19.88;61.28
26823;BME280;14852;51.910;8.878;2022-07-30T04:32:32;99866.28;;;19.88;61.50
26823;BME280;14852;51.910;8.878;2022-07-30T04:35:32;99865.31;;;19.89;61.17
26823;BME280;14852;51.910;8.878;2022-07-30T04:38:09;99868.22;;;19.86;61.43
26823;BME280;14852;51.910;8.878;2022-07-30T04:40:36;99869.06;;;19.86;61.64
26823;BME280;14852;51.910;8.878;2022-07-30T04:43:02;99877.81;;;19.87;61.43
26823;BME280;14852;51.910;8.878;2022-07-30T04:45:28;99872.41;;;19.88;61.55
26823;BME280;14852;51.910;8.878;2022-07-30T04:47:56;99870.72;;;19.87;61.40
26823;BME280;14852;51.910;8.878;2022-07-30T04:50:41;99873.25;;;19.89;61.49
26823;BME280;14852;51.910;8.878;2022-07-30T04:53:10;99882.81;;;19.90;61.62
26823;BME280;14852;51.910;8.878;2022-07-30T04:55:44;99880.31;;;19.88;61.35
26823;BME280;14852;51.910;8.878;2022-07-30T04:58:12;99881.16;;;19.89;61.55
26823;BME280;14852;51.910;8.878;2022-07-30T05:00:40;99885.44;;;19.90;61.65
26823;BME280;14852;51.910;8.878;2022-07-30T05:03:12;99886.28;;;19.91;61.46
26823;BME280;14852;51.910;8.878;2022-07-30T05:05:42;99886.28;;;19.91;61.45
26823;BME280;14852;51.910;8.878;2022-07-30T05:08:09;99896.44;;;19.95;61.39
26823;BME280;14852;51.910;8.878;2022-07-30T05:10:37;99891.72;;;19.99;61.79
26823;BME280;14852;51.910;8.878;2022-07-30T05:13:03;99895.03;;;20.01;61.14
26823;BME280;14852;51.910;8.878;2022-07-30T05:15:28;99887.25;;;19.99;61.32
26823;BME280;14852;51.910;8.878;2022-07-30T05:17:54;99890.88;;;19.98;61.31
26823;BME280;14852;51.910;8.878;2022-07-30T05:20:20;99890.47;;;19.93;62.03
26823;BME280;14852;51.910;8.878;2022-07-30T05:23:06;99900.44;;;19.89;61.54
26823;BME280;14852;51.910;8.878;2022-07-30T05:25:34;99894.19;;;19.91;61.89
26823;BME280;14852;51.910;8.878;2022-07-30T05:28:13;99904.34;;;19.95;61.96
26823;BME280;14852;51.910;8.878;2022-07-30T05:30:39;99906.00;;;19.96;62.18
26823;BME280;14852;51.910;8.878;2022-07-30T05:33:05;99905.88;;;19.98;61.74
26823;BME280;14852;51.910;8.878;2022-07-30T05:35:31;99902.97;;;20.01;61.91
26823;BME280;14852;51.910;8.878;2022-07-30T05:37:59;99905.34;;;20.04;61.85
26823;BME280;14852;51.910;8.878;2022-07-30T05:40:28;99900.06;;;20.04;61.69
26823;BME280;14852;51.910;8.878;2022-07-30T05:42:56;99907.13;;;20.03;61.84
26823;BME280;14852;51.910;8.878;2022-07-30T05:45:22;99913.38;;;20.02;62.24
26823;BME280;14852;51.910;8.878;2022-07-30T05:47:48;99909.19;;;20.00;62.26
26823;BME280;14852;51.910;8.878;2022-07-30T05:50:14;99906.69;;;19.98;62.39
26823;BME280;14852;51.910;8.878;2022-07-30T05:52:40;99911.28;;;19.96;62.54
26823;BME280;14852;51.910;8.878;2022-07-30T05:55:26;99908.94;;;19.93;62.26
26823;BME280;14852;51.910;8.878;2022-07-30T05:58:12;99907.25;;;19.92;62.63
26823;BME280;14852;51.910;8.878;2022-07-30T06:00:38;99911.69;;;19.92;62.33
26823;BME280;14852;51.910;8.878;2022-07-30T06:03:04;99909.75;;;19.94;62.95
26823;BME280;14852;51.910;8.878;2022-07-30T06:05:57;99907.81;;;19.96;62.99
26823;BME280;14852;51.910;8.878;2022-07-30T06:08:23;99914.59;;;19.98;62.69
26823;BME280;14852;51.910;8.878;2022-07-30T06:10:49;99918.38;;;20.05;62.38
26823;BME280;14852;51.910;8.878;2022-07-30T06:13:14;99917.81;;;20.11;62.63
26823;BME280;14852;51.910;8.878;2022-07-30T06:15:40;99919.22;;;20.15;62.35
26823;BME280;14852;51.910;8.878;2022-07-30T06:18:06;99922.28;;;20.20;62.83
26823;BME280;14852;51.910;8.878;2022-07-30T06:20:41;99919.94;;;20.27;62.41
26823;BME280;14852;51.910;8.878;2022-07-30T06:23:16;99916.03;;;20.31;62.08
26823;BME280;14852;51.910;8.878;2022-07-30T06:25:56;99923.31;;;20.39;62.07
26823;BME280;14852;51.910;8.878;2022-07-30T06:28:23;99917.47;;;20.45;62.34
26823;BME280;14852;51.910;8.878;2022-07-30T06:30:50;99922.06;;;20.52;62.05
26823;BME280;14852;51.910;8.878;2022-07-30T06:33:17;99918.97;;;20.57;61.90
26823;BME280;14852;51.910;8.878;2022-07-30T06:35:43;99925.91;;;20.68;61.80
26823;BME280;14852;51.910;8.878;2022-07-30T06:38:12;99917.84;;;20.79;61.69
26823;BME280;14852;51.910;8.878;2022-07-30T06:40:51;99920.31;;;20.90;61.62
26823;BME280;14852;51.910;8.878;2022-07-30T06:43:24;99917.38;;;21.03;61.50
26823;BME280;14852;51.910;8.878;2022-07-30T06:46:10;99920.41;;;21.27;61.15
26823;BME280;14852;51.910;8.878;2022-07-30T06:48:43;99918.75;;;21.81;59.57
26823;BME280;14852;51.910;8.878;2022-07-30T06:51:10;99919.22;;;22.03;59.73
26823;BME280;14852;51.910;8.878;2022-07-30T06:53:38;99917.50;;;22.12;59.20
26823;BME280;14852;51.910;8.878;2022-07-30T06:56:24;99916.94;;;22.09;59.86
26823;BME280;14852;51.910;8.878;2022-07-30T06:58:57;99927.81;;;22.06;60.11
26823;BME280;14852;51.910;8.878;2022-07-30T07:01:45;99933.22;;;22.14;59.70
26823;BME280;14852;51.910;8.878;2022-07-30T07:04:11;99919.66;;;22.17;59.83
26823;BME280;14852;51.910;8.878;2022-07-30T07:06:38;99922.50;;;22.15;59.58
26823;BME280;14852;51.910;8.878;2022-07-30T07:09:05;99927.47;;;22.18;59.42
26823;BME280;14852;51.910;8.878;2022-07-30T07:11:44;99924.75;;;22.28;59.44
26823;BME280;14852;51.910;8.878;2022-07-30T07:14:13;99917.72;;;22.36;59.52
26823;BME280;14852;51.910;8.878;2022-07-30T07:16:39;99923.47;;;22.50;59.15
26823;BME280;14852;51.910;8.878;2022-07-30T07:19:28;99926.28;;;22.74;58.70
26823;BME280;14852;51.910;8.878;2022-07-30T07:21:54;99923.50;;;22.93;57.93
26823;BME280;14852;51.910;8.878;2022-07-30T07:24:19;99923.09;;;23.06;58.12
26823;BME280;14852;51.910;8.878;2022-07-30T07:27:06;99922.75;;;23.09;58.02
26823;BME280;14852;51.910;8.878;2022-07-30T07:29:32;99930.25;;;23.14;57.79
26823;BME280;14852;51.910;8.878;2022-07-30T07:32:01;99929.16;;;23.24;57.78
26823;BME280;14852;51.910;8.878;2022-07-30T07:34:27;99924.94;;;23.39;57.61
26823;BME280;14852;51.910;8.878;2022-07-30T07:36:53;99916.47;;;23.70;56.95
26823;BME280;14852;51.910;8.878;2022-07-30T07:39:20;99922.78;;;24.27;55.42
26823;BME280;14852;51.910;8.878;2022-07-30T07:41:47;99916.00;;;24.49;54.95
26823;BME280;14852;51.910;8.878;2022-07-30T07:44:13;99913.84;;;24.69;54.43
26823;BME280;14852;51.910;8.878;2022-07-30T07:46:39;99914.84;;;24.92;53.87
26823;BME280;14852;51.910;8.878;2022-07-30T07:49:05;99912.97;;;25.17;53.37
26823;BME280;14852;51.910;8.878;2022-07-30T07:51:43;99902.53;;;25.93;51.73
26823;BME280;14852;51.910;8.878;2022-07-30T07:54:12;99901.13;;;26.37;51.14
26823;BME280;14852;51.910;8.878;2022-07-30T07:56:38;99891.09;;;27.28;48.73
26823;BME280;14852;51.910;8.878;2022-07-30T07:59:05;99892.59;;;28.81;45.58
26823;BME280;14852;51.910;8.878;2022-07-30T08:01:31;99893.06;;;30.35;43.25
26823;BME280;14852;51.910;8.878;2022-07-30T08:04:16;99892.72;;;30.64;42.33
26823;BME280;14852;51.910;8.878;2022-07-30T08:07:01;99890.59;;;30.27;43.20
26823;BME280;14852;51.910;8.878;2022-07-30T08:09:45;99890.63;;;30.59;43.56
26823;BME280;14852;51.910;8.878;2022-07-30T08:12:20;99892.28;;;30.74;43.13
26823;BME280;14852;51.910;8.878;2022-07-30T08:15:09;99871.91;;;31.95;41.84
26823;BME280;14852;51.910;8.878;2022-07-30T08:18:01;99874.53;;;33.62;38.23
26823;BME280;14852;51.910;8.878;2022-07-30T08:20:45;99868.19;;;34.70;36.76
26823;BME280;14852;51.910;8.878;2022-07-30T08:23:12;99862.75;;;35.40;36.03
26823;BME280;14852;51.910;8.878;2022-07-30T08:25:38;99856.44;;;35.63;34.94
26823;BME280;14852;51.910;8.878;2022-07-30T08:28:04;99858.25;;;35.85;35.18
26823;BME280;14852;51.910;8.878;2022-07-30T08:30:30;99857.84;;;35.65;34.49
26823;BME280;14852;51.910;8.878;2022-07-30T08:32:56;99860.31;;;35.55;35.23
26823;BME280;14852;51.910;8.878;2022-07-30T08:35:22;99857.25;;;35.91;34.76
26823;BME280;14852;51.910;8.878;2022-07-30T08:37:48;99850.78;;;36.38;34.29
26823;BME280;14852;51.910;8.878;2022-07-30T08:40:18;99864.00;;;36.34;35.20
26823;BME280;14852;51.910;8.878;2022-07-30T08:42:52;99856.00;;;36.11;35.21
26823;BME280;14852;51.910;8.878;2022-07-30T08:45:18;99861.19;;;35.84;35.99
26823;BME280;14852;51.910;8.878;2022-07-30T08:47:46;99858.38;;;35.50;36.60
26823;BME280;14852;51.910;8.878;2022-07-30T08:50:21;99857.13;;;35.18;37.18
26823;BME280;14852;51.910;8.878;2022-07-30T08:53:05;99864.06;;;34.56;37.97
26823;BME280;14852;51.910;8.878;2022-07-30T08:55:31;99861.78;;;33.69;39.49
26823;BME280;14852;51.910;8.878;2022-07-30T08:57:57;99865.22;;;33.28;40.29
26823;BME280;14852;51.910;8.878;2022-07-30T09:00:23;99868.34;;;33.07;40.66
26823;BME280;14852;51.910;8.878;2022-07-30T09:02:49;99874.16;;;33.04;40.62
26823;BME280;14852;51.910;8.878;2022-07-30T09:05:15;99878.13;;;33.01;40.50
26823;BME280;14852;51.910;8.878;2022-07-30T09:07:41;99879.63;;;32.97;40.55
26823;BME280;14852;51.910;8.878;2022-07-30T09:10:13;99878.28;;;33.06;40.47
26823;BME280;14852;51.910;8.878;2022-07-30T09:12:41;99877.53;;;33.18;40.56
26823;BME280;14852;51.910;8.878;2022-07-30T09:15:17;99875.63;;;33.25;40.42
26823;BME280;14852;51.910;8.878;2022-07-30T09:18:01;99877.72;;;33.41;40.66
26823;BME280;14852;51.910;8.878;2022-07-30T09:20:33;99880.56;;;33.46;38.69
26823;BME280;14852;51.910;8.878;2022-07-30T09:23:05;99876.28;;;33.38;39.22
26823;BME280;14852;51.910;8.878;2022-07-30T09:25:49;99890.09;;;33.05;39.35
26823;BME280;14852;51.910;8.878;2022-07-30T09:28:34;99887.31;;;32.94;39.23
26823;BME280;14852;51.910;8.878;2022-07-30T09:31:13;99890.31;;;32.86;39.46
26823;BME280;14852;51.910;8.878;2022-07-30T09:33:57;99886.00;;;32.78;39.29
26823;BME280;14852;51.910;8.878;2022-07-30T09:36:42;99887.94;;;32.71;39.17
26823;BME280;14852;51.910;8.878;2022-07-30T09:42:25;99892.47;;;32.70;39.70
26823;BME280;14852;51.910;8.878;2022-07-30T09:45:14;99885.44;;;32.76;39.72
26823;BME280;14852;51.910;8.878;2022-07-30T09:47:44;99890.81;;;32.76;39.00
26823;BME280;14852;51.910;8.878;2022-07-30T09:50:15;99886.19;;;32.83;38.36
26823;BME280;14852;51.910;8.878;2022-07-30T09:52:44;99892.16;;;32.85;38.72
26823;BME280;14852;51.910;8.878;2022-07-30T09:55:12;99888.53;;;32.98;38.39
26823;BME280;14852;51.910;8.878;2022-07-30T09:58:01;99888.88;;;33.01;38.46
26823;BME280;14852;51.910;8.878;2022-07-30T10:00:31;99890.09;;;33.05;37.62
26823;BME280;14852;51.910;8.878;2022-07-30T10:03:22;99888.25;;;33.24;37.57
26823;BME280;14852;51.910;8.878;2022-07-30T10:06:08;99893.97;;;33.34;36.47
26823;BME280;14852;51.910;8.878;2022-07-30T10:08:49;99888.19;;;33.31;37.60
26823;BME280;14852;51.910;8.878;2022-07-30T10:11:21;99889.03;;;33.31;36.73
26823;BME280;14852;51.910;8.878;2022-07-30T10:13:57;99882.22;;;33.29;37.42
26823;BME280;14852;51.910;8.878;2022-07-30T10:16:26;99886.31;;;33.31;36.66
26823;BME280;14852;51.910;8.878;2022-07-30T10:18:53;99895.97;;;33.39;36.33
26823;BME280;14852;51.910;8.878;2022-07-30T10:21:51;99892.28;;;33.52;36.45
26823;BME280;14852;51.910;8.878;2022-07-30T10:24:19;99889.81;;;33.68;36.16
26823;BME280;14852;51.910;8.878;2022-07-30T10:26:53;99898.94;;;33.67;35.47
26823;BME280;14852;51.910;8.878;2022-07-30T10:29:40;99887.72;;;33.52;35.74
26823;BME280;14852;51.910;8.878;2022-07-30T10:32:06;99883.16;;;33.53;35.60
26823;BME280;14852;51.910;8.878;2022-07-30T10:34:32;99884.06;;;33.28;35.67
26823;BME280;14852;51.910;8.878;2022-07-30T10:37:03;99896.38;;;32.99;36.11
26823;BME280;14852;51.910;8.878;2022-07-30T10:39:52;99887.91;;;32.96;36.70
26823;BME280;14852;51.910;8.878;2022-07-30T10:42:41;99887.16;;;32.89;36.70
26823;BME280;14852;51.910;8.878;2022-07-30T10:48:16;99879.31;;;33.05;36.29
26823;BME280;14852;51.910;8.878;2022-07-30T10:50:55;99888.75;;;32.96;36.50
26823;BME280;14852;51.910;8.878;2022-07-30T10:53:39;99882.38;;;32.91;36.22
26823;BME280;14852;51.910;8.878;2022-07-30T10:56:23;99871.56;;;32.97;36.03
26823;BME280;14852;51.910;8.878;2022-07-30T11:04:21;99877.50;;;33.42;34.76
26823;BME280;14852;51.910;8.878;2022-07-30T11:06:48;99873.44;;;33.52;33.90
26823;BME280;14852;51.910;8.878;2022-07-30T11:09:37;99865.78;;;33.67;34.22
26823;BME280;14852;51.910;8.878;2022-07-30T11:12:07;99875.41;;;33.74;33.70
26823;BME280;14852;51.910;8.878;2022-07-30T11:17:12;99876.63;;;33.60;33.04
26823;BME280;14852;51.910;8.878;2022-07-30T11:20:08;99872.06;;;33.61;33.17
26823;BME280;14852;51.910;8.878;2022-07-30T11:22:36;99877.22;;;33.62;32.56
26823;BME280;14852;51.910;8.878;2022-07-30T11:27:50;99875.25;;;33.69;32.34
26823;BME280;14852;51.910;8.878;2022-07-30T11:32:48;99875.84;;;33.71;32.04
26823;BME280;14852;51.910;8.878;2022-07-30T11:35:25;99866.22;;;33.82;32.17
26823;BME280;14852;51.910;8.878;2022-07-30T11:38:05;99867.25;;;33.81;32.01
26823;BME280;14852;51.910;8.878;2022-07-30T11:43:32;99858.97;;;33.64;31.79
26823;BME280;14852;51.910;8.878;2022-07-30T11:46:18;99865.50;;;33.57;32.21
26823;BME280;14852;51.910;8.878;2022-07-30T11:48:59;99859.81;;;33.47;31.70
26823;BME280;14852;51.910;8.878;2022-07-30T11:51:26;99861.31;;;33.42;31.71
26823;BME280;14852;51.910;8.878;2022-07-30T11:54:06;99865.72;;;33.37;31.88
26823;BME280;14852;51.910;8.878;2022-07-30T11:56:32;99863.34;;;33.11;31.57
26823;BME280;14852;51.910;8.878;2022-07-30T11:59:06;99857.25;;;33.15;32.02
26823;BME280;14852;51.910;8.878;2022-07-30T12:01:34;99864.41;;;33.28;31.62
26823;BME280;14852;51.910;8.878;2022-07-30T12:04:05;99858.84;;;33.23;31.75
26823;BME280;14852;51.910;8.878;2022-07-30T12:06:31;99865.28;;;33.22;31.89
26823;BME280;14852;51.910;8.878;2022-07-30T12:08:58;99868.56;;;33.24;31.22
26823;BME280;14852;51.910;8.878;2022-07-30T12:11:30;99864.41;;;33.28;31.40
26823;BME280;14852;51.910;8.878;2022-07-30T12:13:58;99862.50;;;33.47;31.31
26823;BME280;14852;51.910;8.878;2022-07-30T12:16:25;99869.03;;;33.57;31.42
26823;BME280;14852;51.910;8.878;2022-07-30T12:18:52;99858.41;;;33.74;30.73
26823;BME280;14852;51.910;8.878;2022-07-30T12:21:18;99856.72;;;33.79;30.12
26823;BME280;14852;51.910;8.878;2022-07-30T12:23:57;99855.44;;;33.82;31.10
26823;BME280;14852;51.910;8.878;2022-07-30T12:26:31;99860.50;;;33.72;30.39
26823;BME280;14852;51.910;8.878;2022-07-30T12:29:05;99850.28;;;33.62;30.47
26823;BME280;14852;51.910;8.878;2022-07-30T12:31:32;99860.19;;;33.50;30.41
26823;BME280;14852;51.910;8.878;2022-07-30T12:33:58;99857.00;;;33.41;30.74
26823;BME280;14852;51.910;8.878;2022-07-30T12:36:34;99852.25;;;33.37;30.97
26823;BME280;14852;51.910;8.878;2022-07-30T12:39:03;99860.94;;;33.21;30.44
26823;BME280;14852;51.910;8.878;2022-07-30T12:41:44;99856.75;;;33.06;30.96
26823;BME280;14852;51.910;8.878;2022-07-30T12:44:09;99859.97;;;32.97;30.51
26823;BME280;14852;51.910;8.878;2022-07-30T12:46:40;99849.09;;;33.03;30.78
26823;BME280;14852;51.910;8.878;2022-07-30T12:49:07;99861.97;;;33.01;30.33
26823;BME280;14852;51.910;8.878;2022-07-30T12:51:49;99855.44;;;32.91;30.90
26823;BME280;14852;51.910;8.878;2022-07-30T12:54:17;99863.44;;;32.79;30.78
26823;BME280;14852;51.910;8.878;2022-07-30T12:57:01;99855.69;;;32.64;31.07
26823;BME280;14852;51.910;8.878;2022-07-30T12:59:28;99849.00;;;32.49;30.79
26823;BME280;14852;51.910;8.878;2022-07-30T13:01:55;99849.53;;;32.57;30.97
26823;BME280;14852;51.910;8.878;2022-07-30T13:04:22;99852.09;;;32.70;31.05
26823;BME280;14852;51.910;8.878;2022-07-30T13:07:09;99851.84;;;32.79;30.67
26823;BME280;14852;51.910;8.878;2022-07-30T13:09:36;99859.78;;;32.73;30.89
26823;BME280;14852;51.910;8.878;2022-07-30T13:12:03;99848.28;;;32.85;30.85
26823;BME280;14852;51.910;8.878;2022-07-30T13:14:29;99857.19;;;33.03;30.44
26823;BME280;14852;51.910;8.878;2022-07-30T13:16:55;99850.38;;;33.19;30.27
26823;BME280;14852;51.910;8.878;2022-07-30T13:19:23;99848.53;;;33.20;30.24
26823;BME280;14852;51.910;8.878;2022-07-30T13:21:49;99847.75;;;33.13;30.06
26823;BME280;14852;51.910;8.878;2022-07-30T13:24:16;99848.75;;;33.00;29.96
26823;BME280;14852;51.910;8.878;2022-07-30T13:26:42;99848.06;;;33.04;29.77
26823;BME280;14852;51.910;8.878;2022-07-30T13:29:08;99849.09;;;33.03;30.24
26823;BME280;14852;51.910;8.878;2022-07-30T13:31:34;99851.19;;;33.01;30.22
26823;BME280;14852;51.910;8.878;2022-07-30T13:34:00;99849.53;;;33.00;29.98
26823;BME280;14852;51.910;8.878;2022-07-30T13:36:26;99851.66;;;32.98;30.27
26823;BME280;14852;51.910;8.878;2022-07-30T13:38:53;99850.53;;;32.88;30.48
26823;BME280;14852;51.910;8.878;2022-07-30T13:41:19;99850.66;;;32.75;30.21
26823;BME280;14852;51.910;8.878;2022-07-30T13:43:45;99851.88;;;32.54;30.07
26823;BME280;14852;51.910;8.878;2022-07-30T13:46:11;99849.06;;;32.42;30.15